Time;durP1;ratioP1;P1;durP2;ratioP2;P2;SDS_P1;SDS_P2;PMS_P1;PMS_P2;Temp;Humidity;BMP_temperature;BMP_pressure;BME280_temperature;BME280_humidity;BME280_pressure;Samples;Min_cycle;Max_cycle;Signal;HPM_P1;HPM_P2
2023/04/12 00:02:34;;;;;;;0.77;0.77;;;11.00;62.50;;;;;;6289658;28;20848;-64
2023/04/12 00:05:38;;;;;;;1.33;0.70;;;11.00;62.50;;;;;;6282958;28;20851;-63
2023/04/12 00:08:41;;;;;;;1.20;0.70;;;10.90;62.80;;;;;;6278396;28;20458;-64
2023/04/12 00:11:44;;;;;;;1.03;0.83;;;10.90;63.30;;;;;;6288480;28;20960;-64
2023/04/12 00:14:49;;;;;;;1.37;1.10;;;10.90;63.20;;;;;;6285705;28;20500;-64
2023/04/12 00:17:52;;;;;;;1.27;1.17;;;10.90;63.30;;;;;;6284392;28;20466;-64
2023/04/12 00:20:55;;;;;;;2.33;1.13;;;10.90;63.30;;;;;;6281061;28;20462;-64
2023/04/12 00:23:58;;;;;;;2.37;1.23;;;10.90;63.90;;;;;;6283725;28;20469;-64
2023/04/12 00:27:01;;;;;;;1.57;1.07;;;10.90;63.30;;;;;;6286152;28;20510;-64
2023/04/12 00:30:08;;;;;;;2.80;1.00;;;10.90;63.50;;;;;;6284146;28;20481;-64
2023/04/12 00:33:11;;;;;;;0.73;0.73;;;10.90;63.30;;;;;;6289650;28;20468;-63
2023/04/12 00:36:14;;;;;;;1.87;1.00;;;11.00;63.40;;;;;;6287032;28;20584;-64
2023/04/12 00:39:17;;;;;;;0.80;0.70;;;11.00;63.30;;;;;;6300798;28;20473;-63
2023/04/12 00:42:20;;;;;;;1.63;0.90;;;10.90;63.30;;;;;;6300683;28;20469;-64
2023/04/12 00:45:26;;;;;;;1.63;0.90;;;10.90;63.20;;;;;;6300817;28;20571;-63
2023/04/12 00:48:30;;;;;;;1.10;1.03;;;10.90;63.00;;;;;;6300836;28;20484;-64
2023/04/12 00:51:34;;;;;;;1.10;0.80;;;11.00;63.20;;;;;;6296219;28;20461;-64
2023/04/12 00:54:38;;;;;;;1.17;0.80;;;11.00;63.00;;;;;;6288961;28;20826;-64
2023/04/12 00:57:41;;;;;;;2.30;0.87;;;10.90;62.70;;;;;;6278881;28;20474;-64
2023/04/12 01:00:49;;;;;;;2.07;1.00;;;11.00;62.60;;;;;;6277226;28;20466;-64
2023/04/12 01:03:59;;;;;;;1.27;0.90;;;11.00;62.60;;;;;;6286846;28;20478;-64
2023/04/12 01:07:14;;;;;;;0.77;0.77;;;11.00;62.50;;;;;;6284738;28;20485;-64
2023/04/12 01:10:30;;;;;;;1.53;0.70;;;10.90;62.40;;;;;;6277823;28;20470;-65
2023/04/12 01:13:39;;;;;;;1.60;0.90;;;10.90;62.60;;;;;;6282124;28;20477;-65
2023/04/12 01:16:50;;;;;;;1.30;0.80;;;10.90;63.80;;;;;;6277937;28;20969;-65
2023/04/12 01:19:58;;;;;;;0.83;0.80;;;10.90;63.30;;;;;;6274646;28;20567;-64
2023/04/12 01:23:17;;;;;;;1.30;0.87;;;10.90;63.70;;;;;;6274507;28;20446;-64
2023/04/12 01:26:33;;;;;;;0.70;0.70;;;10.90;64.30;;;;;;6274293;28;21008;-64
2023/04/12 01:29:38;;;;;;;2.20;0.90;;;10.90;64.40;;;;;;6274398;28;20470;-64
2023/04/12 01:32:46;;;;;;;1.30;1.00;;;10.90;64.40;;;;;;6276087;28;20474;-64
2023/04/12 01:35:51;;;;;;;1.23;0.97;;;10.90;64.70;;;;;;6279710;28;20859;-64
2023/04/12 01:38:55;;;;;;;0.73;0.70;;;11.00;64.80;;;;;;6280002;28;20814;-64
2023/04/12 01:41:59;;;;;;;3.90;1.20;;;11.00;64.90;;;;;;6278350;28;20473;-64
2023/04/12 01:45:05;;;;;;;2.10;1.17;;;11.00;65.00;;;;;;6274452;28;20470;-66
2023/04/12 01:48:11;;;;;;;1.37;1.17;;;11.00;64.90;;;;;;6274455;28;20474;-66
2023/04/12 01:51:19;;;;;;;1.17;1.07;;;10.90;65.10;;;;;;6274201;28;20470;-66
2023/04/12 01:54:27;;;;;;;1.40;0.87;;;10.90;65.30;;;;;;6274274;28;20478;-66
2023/04/12 01:57:31;;;;;;;2.23;1.10;;;10.90;65.30;;;;;;6274231;28;20524;-66
2023/04/12 02:00:36;;;;;;;1.40;1.10;;;10.90;65.50;;;;;;6274592;28;20489;-67
2023/04/12 02:03:42;;;;;;;1.00;1.00;;;10.90;65.40;;;;;;6274226;28;20463;-66
2023/04/12 02:06:47;;;;;;;2.70;0.90;;;10.90;65.50;;;;;;6274057;28;20478;-66
2023/04/12 02:09:50;;;;;;;1.93;1.47;;;10.90;65.50;;;;;;6274027;28;20779;-66
2023/04/12 02:12:54;;;;;;;0.93;0.93;;;10.90;65.60;;;;;;6288373;28;20481;-66
2023/04/12 02:15:58;;;;;;;1.20;1.10;;;10.80;65.50;;;;;;6289405;28;20921;-66
2023/04/12 02:19:02;;;;;;;1.77;0.80;;;10.80;65.90;;;;;;6298808;28;20476;-66
2023/04/12 02:22:07;;;;;;;1.70;1.13;;;10.70;66.20;;;;;;6298971;28;20991;-67
2023/04/12 02:25:10;;;;;;;0.90;0.90;;;10.70;66.60;;;;;;6298996;28;20789;-66
2023/04/12 02:28:13;;;;;;;2.43;0.90;;;10.70;66.80;;;;;;6300533;28;20469;-65
2023/04/12 02:31:18;;;;;;;1.70;1.20;;;10.70;66.80;;;;;;6291272;28;20481;-66
2023/04/12 02:34:21;;;;;;;1.13;1.00;;;10.60;66.80;;;;;;6278477;28;20481;-66
2023/04/12 02:37:26;;;;;;;0.77;0.77;;;10.60;67.10;;;;;;6278311;28;20481;-65
2023/04/12 02:40:29;;;;;;;1.27;1.00;;;10.60;67.00;;;;;;6278356;28;20973;-65
2023/04/12 02:43:33;;;;;;;2.10;1.07;;;10.50;66.90;;;;;;6278179;28;20961;-65
2023/04/12 02:46:37;;;;;;;1.30;1.07;;;10.40;67.00;;;;;;6278305;28;20489;-65
2023/04/12 02:49:40;;;;;;;3.13;1.23;;;10.40;67.60;;;;;;6277933;28;20818;-65
2023/04/12 02:52:45;;;;;;;1.23;0.80;;;10.30;67.70;;;;;;6277839;28;20501;-65
2023/04/12 02:55:48;;;;;;;1.20;0.90;;;10.20;68.20;;;;;;6277783;28;20478;-65
2023/04/12 02:58:52;;;;;;;1.20;1.10;;;10.10;68.50;;;;;;6278004;28;20477;-65
2023/04/12 03:01:56;;;;;;;1.60;1.00;;;10.10;68.90;;;;;;6277585;28;20488;-66
2023/04/12 03:05:02;;;;;;;1.33;1.23;;;10.10;69.40;;;;;;6277563;28;20976;-65
2023/04/12 03:08:05;;;;;;;1.47;1.37;;;10.00;69.60;;;;;;6277794;28;20442;-65
2023/04/12 03:11:08;;;;;;;0.90;0.90;;;10.00;70.00;;;;;;6277719;28;20988;-66
2023/04/12 03:14:11;;;;;;;1.47;1.30;;;9.90;71.30;;;;;;6277867;28;20470;-65
2023/04/12 03:17:16;;;;;;;1.83;1.60;;;9.80;71.70;;;;;;6273434;28;20466;-65
2023/04/12 03:20:19;;;;;;;4.50;1.90;;;9.80;72.20;;;;;;6277588;28;20473;-65
2023/04/12 03:23:22;;;;;;;2.43;2.23;;;9.60;74.50;;;;;;6277818;28;20485;-65
2023/04/12 03:26:26;;;;;;;3.70;2.40;;;9.40;75.00;;;;;;6277170;28;20779;-65
2023/04/12 03:29:29;;;;;;;6.50;2.80;;;9.30;76.00;;;;;;6277420;28;20843;-65
2023/04/12 03:32:34;;;;;;;3.53;2.10;;;9.20;77.00;;;;;;6277333;28;20481;-65
2023/04/12 03:35:37;;;;;;;3.00;2.70;;;9.10;78.40;;;;;;6276983;28;20470;-66
2023/04/12 03:38:40;;;;;;;2.33;2.10;;;9.10;78.20;;;;;;6277285;28;20476;-66
2023/04/12 03:41:45;;;;;;;2.80;1.97;;;9.00;78.80;;;;;;6259865;28;20474;-66
2023/04/12 03:44:48;;;;;;;3.37;2.03;;;8.90;79.20;;;;;;6277361;28;20634;-65
2023/04/12 03:47:53;;;;;;;4.30;2.60;;;8.90;79.70;;;;;;6277320;28;20477;-66
2023/04/12 03:50:58;;;;;;;4.63;3.00;;;8.90;80.10;;;;;;6277121;28;20474;-66
2023/04/12 03:54:03;;;;;;;2.80;2.30;;;8.80;80.50;;;;;;6276645;28;20481;-65
2023/04/12 03:57:06;;;;;;;2.77;2.33;;;8.80;81.00;;;;;;6276783;28;20834;-66
2023/04/12 04:00:11;;;;;;;5.70;2.60;;;8.70;81.40;;;;;;6276759;28;20484;-66
2023/04/12 04:03:16;;;;;;;2.63;2.43;;;8.60;82.40;;;;;;6276361;28;20474;-66
2023/04/12 04:06:19;;;;;;;3.90;3.10;;;8.40;83.50;;;;;;6276455;28;20466;-65
2023/04/12 04:09:22;;;;;;;4.83;3.13;;;8.30;84.60;;;;;;6276608;28;20470;-65
2023/04/12 04:12:26;;;;;;;6.60;3.50;;;8.20;84.00;;;;;;6276522;28;20821;-65
2023/04/12 04:15:30;;;;;;;4.03;3.50;;;8.20;84.20;;;;;;6275884;28;20482;-65
2023/04/12 04:18:34;;;;;;;6.43;4.90;;;8.10;84.40;;;;;;6276129;28;20949;-65
2023/04/12 04:21:39;;;;;;;4.77;4.30;;;8.00;84.30;;;;;;6275783;28;20499;-65
2023/04/12 04:24:42;;;;;;;5.13;4.63;;;8.00;84.50;;;;;;6266297;28;20474;-65
2023/04/12 04:27:45;;;;;;;4.40;4.07;;;7.90;84.40;;;;;;6275782;28;20492;-65
2023/04/12 04:30:50;;;;;;;5.10;4.70;;;7.90;84.00;;;;;;6275762;28;20485;-65
2023/04/12 04:33:54;;;;;;;6.63;4.83;;;7.80;83.80;;;;;;6275460;28;20470;-65
2023/04/12 04:36:58;;;;;;;5.80;4.40;;;7.80;83.90;;;;;;6275514;28;21051;-65
2023/04/12 04:40:06;;;;;;;5.43;4.90;;;7.80;84.30;;;;;;6275684;28;20470;-65
2023/04/12 04:43:12;;;;;;;7.70;4.53;;;7.90;84.60;;;;;;6275848;28;20467;-65
2023/04/12 04:46:16;;;;;;;4.30;3.53;;;7.90;84.60;;;;;;6275339;28;20489;-65
2023/04/12 04:49:20;;;;;;;4.53;4.10;;;7.80;83.80;;;;;;6275205;28;20544;-65
2023/04/12 04:52:24;;;;;;;4.00;3.50;;;7.90;83.90;;;;;;6274772;28;20474;-65
2023/04/12 04:55:28;;;;;;;24.57;13.40;;;7.80;84.40;;;;;;6275085;28;20615;-65
2023/04/12 04:58:31;;;;;;;45.63;24.00;;;7.80;85.00;;;;;;6274831;28;20466;-65
2023/04/12 05:01:35;;;;;;;10.27;7.50;;;7.80;85.30;;;;;;6278760;28;20461;-65
2023/04/12 05:04:40;;;;;;;10.50;6.50;;;7.90;85.50;;;;;;6284130;28;20481;-65
2023/04/12 05:07:43;;;;;;;7.33;5.73;;;7.90;85.70;;;;;;6299493;28;20511;-65
2023/04/12 05:10:50;;;;;;;7.53;4.00;;;7.90;85.80;;;;;;6299837;28;20980;-65
2023/04/12 05:13:53;;;;;;;5.87;4.00;;;8.00;86.00;;;;;;6299510;28;20469;-65
2023/04/12 05:16:57;;;;;;;8.40;4.50;;;8.00;86.00;;;;;;6299422;28;20828;-66
2023/04/12 05:20:05;;;;;;;7.10;4.67;;;8.10;86.10;;;;;;6299439;28;20452;-65
2023/04/12 05:23:08;;;;;;;5.53;4.57;;;8.10;85.80;;;;;;6299773;28;20446;-65
2023/04/12 05:26:11;;;;;;;6.13;3.80;;;8.20;85.70;;;;;;6299645;28;20785;-66
2023/04/12 05:29:15;;;;;;;11.67;6.13;;;8.20;85.70;;;;;;6299960;28;20449;-65
2023/04/12 05:32:18;;;;;;;15.20;9.63;;;8.40;86.10;;;;;;6299804;28;20457;-64
2023/04/12 05:35:22;;;;;;;12.83;8.97;;;8.60;86.30;;;;;;6299798;28;20481;-65
2023/04/12 05:38:26;;;;;;;7.47;5.70;;;8.80;86.10;;;;;;6299671;28;20554;-65
2023/04/12 05:41:30;;;;;;;6.63;5.10;;;9.00;85.50;;;;;;6299431;28;20465;-64
2023/04/12 05:44:35;;;;;;;11.33;5.70;;;9.20;85.00;;;;;;6299449;28;20480;-65
2023/04/12 05:47:38;;;;;;;10.90;5.97;;;9.20;84.30;;;;;;6300003;28;20969;-65
2023/04/12 05:50:50;;;;;;;8.23;5.30;;;9.30;84.10;;;;;;6310625;28;20552;-64
2023/04/12 05:53:53;;;;;;;5.33;3.53;;;9.30;84.20;;;;;;6301604;28;20462;-65
2023/04/12 05:56:56;;;;;;;7.57;3.90;;;9.40;83.90;;;;;;6299758;28;20480;-65
2023/04/12 06:00:00;;;;;;;4.03;3.27;;;9.60;83.80;;;;;;6298837;28;20465;-66
2023/04/12 06:03:03;;;;;;;3.30;2.50;;;9.90;84.20;;;;;;6300993;28;20473;-66
2023/04/12 06:06:09;;;;;;;4.37;2.73;;;10.30;81.70;;;;;;6303703;28;20534;-66
2023/04/12 06:09:13;;;;;;;4.50;2.13;;;11.20;81.60;;;;;;6287277;28;20564;-66
2023/04/12 06:12:16;;;;;;;9.73;2.77;;;12.90;76.40;;;;;;6303947;28;20784;-65
2023/04/12 06:15:19;;;;;;;8.47;5.30;;;14.40;71.30;;;;;;6304284;28;20784;-66
2023/04/12 06:18:23;;;;;;;61.70;33.07;;;15.40;65.30;;;;;;6303876;28;20464;-66
2023/04/12 06:21:27;;;;;;;13.23;6.57;;;15.70;61.90;;;;;;6303792;28;20469;-65
2023/04/12 06:24:30;;;;;;;3.00;2.00;;;15.40;60.00;;;;;;6303936;28;20472;-65
2023/04/12 06:27:34;;;;;;;3.70;1.63;;;15.00;60.20;;;;;;6303870;28;20991;-66
2023/04/12 06:30:37;;;;;;;4.63;1.93;;;14.70;60.40;;;;;;6303771;28;20493;-65
2023/04/12 06:33:40;;;;;;;5.63;1.63;;;14.60;61.30;;;;;;6293908;28;20469;-65
2023/04/12 06:36:46;;;;;;;5.80;1.63;;;14.40;60.10;;;;;;6303447;28;20469;-65
2023/04/12 06:39:50;;;;;;;4.67;1.93;;;14.10;60.60;;;;;;6303398;28;20461;-65
2023/04/12 06:42:53;;;;;;;3.80;1.67;;;13.90;61.20;;;;;;6303391;28;20495;-65
2023/04/12 06:45:57;;;;;;;8.03;2.70;;;13.70;62.00;;;;;;6303092;28;20480;-65
2023/04/12 06:49:00;;;;;;;2.47;1.73;;;13.70;62.20;;;;;;6303365;28;20469;-65
2023/04/12 06:52:05;;;;;;;1.87;1.50;;;13.60;61.60;;;;;;6303155;28;20569;-65
2023/04/12 06:55:09;;;;;;;4.50;1.50;;;13.60;61.60;;;;;;6303310;28;20469;-65
2023/04/12 06:58:12;;;;;;;1.90;1.47;;;13.70;61.10;;;;;;6303163;28;20484;-64
2023/04/12 07:01:16;;;;;;;2.57;1.60;;;13.70;60.90;;;;;;6303139;28;20465;-64
2023/04/12 07:04:19;;;;;;;4.33;1.90;;;13.90;60.90;;;;;;6302210;28;20627;-64
2023/04/12 07:07:24;;;;;;;1.50;1.30;;;14.20;60.50;;;;;;6301363;28;20477;-65
2023/04/12 07:10:27;;;;;;;2.87;1.53;;;15.00;59.00;;;;;;6300946;28;20481;-64
2023/04/12 07:13:30;;;;;;;2.70;1.70;;;16.10;57.80;;;;;;6300654;28;20480;-65
2023/04/12 07:16:34;;;;;;;2.33;2.10;;;18.50;52.70;;;;;;6301129;28;20872;-65
2023/04/12 07:19:37;;;;;;;3.00;2.03;;;19.40;48.90;;;;;;6301342;28;20469;-65
2023/04/12 07:22:41;;;;;;;2.87;1.33;;;20.40;47.20;;;;;;6291175;28;20555;-65
2023/04/12 07:25:44;;;;;;;2.60;1.87;;;21.40;45.40;;;;;;6282404;28;20223;-65
2023/04/12 07:28:47;;;;;;;2.60;1.90;;;22.50;41.90;;;;;;6289269;28;20227;-65
2023/04/12 07:31:51;;;;;;;2.03;1.83;;;23.50;40.20;;;;;;6300561;28;20612;-65
2023/04/12 07:34:54;;;;;;;2.93;1.87;;;24.60;38.10;;;;;;6300749;28;20237;-66
2023/04/12 07:37:58;;;;;;;5.13;2.30;;;26.40;35.10;;;;;;6296372;28;20578;-66
2023/04/12 07:41:02;;;;;;;4.80;2.80;;;27.90;31.10;;;;;;6300795;28;20250;-66
2023/04/12 07:44:05;;;;;;;1.93;1.70;;;28.40;28.60;;;;;;6300582;28;20530;-67
2023/04/12 07:47:08;;;;;;;2.63;1.97;;;29.10;26.80;;;;;;6300917;28;20198;-66
2023/04/12 07:50:12;;;;;;;3.13;1.40;;;30.20;25.20;;;;;;6300318;28;20198;-65
2023/04/12 07:53:21;;;;;;;1.70;1.40;;;31.20;23.50;;;;;;6280055;28;20359;-67
2023/04/12 07:56:24;;;;;;;1.98;1.48;;;31.90;22.20;;;;;;6278352;28;20231;-67
2023/04/12 07:59:27;;;;;;;3.35;1.38;;;31.70;21.50;;;;;;6288996;28;20226;-66
2023/04/12 08:02:30;;;;;;;2.30;1.77;;;30.70;21.60;;;;;;6282313;28;20234;-68
2023/04/12 08:05:34;;;;;;;2.53;2.13;;;28.60;22.50;;;;;;6259421;28;1165988;-66
2023/04/12 08:08:39;;;;;;;3.87;1.40;;;25.40;25.00;;;;;;6301684;28;20233;-66
2023/04/12 08:11:42;;;;;;;3.23;2.30;;;24.00;26.80;;;;;;6279141;28;20440;-66
2023/04/12 08:14:45;;;;;;;4.80;2.00;;;22.80;28.60;;;;;;6276085;28;20289;-66
2023/04/12 08:17:48;;;;;;;6.27;2.13;;;21.40;30.00;;;;;;6275899;28;20292;-65
2023/04/12 08:20:51;;;;;;;2.57;2.13;;;21.00;30.60;;;;;;6275853;28;20301;-66
2023/04/12 08:23:56;;;;;;;4.57;2.50;;;20.20;32.30;;;;;;6275980;28;20244;-66
2023/04/12 08:27:00;;;;;;;3.80;2.17;;;19.70;33.20;;;;;;6277294;28;20549;-65
2023/04/12 08:30:04;;;;;;;6.33;2.43;;;19.50;33.70;;;;;;6275711;28;20246;-66
2023/04/12 08:33:07;;;;;;;2.83;2.43;;;18.80;34.90;;;;;;6275936;28;20236;-65
2023/04/12 08:36:10;;;;;;;3.23;2.43;;;18.70;36.00;;;;;;6275093;28;20718;-65
2023/04/12 08:39:15;;;;;;;3.70;2.60;;;18.50;36.50;;;;;;6275510;28;20337;-65
2023/04/12 08:42:19;;;;;;;2.73;2.20;;;18.40;36.90;;;;;;6266568;28;20231;-66
2023/04/12 08:45:25;;;;;;;2.57;1.83;;;19.00;36.60;;;;;;6275370;28;20239;-66
2023/04/12 08:48:28;;;;;;;4.80;3.00;;;19.00;36.30;;;;;;6275383;28;20232;-66
2023/04/12 08:51:35;;;;;;;2.63;2.40;;;19.20;36.60;;;;;;6287474;28;20562;-66
2023/04/12 08:54:39;;;;;;;4.10;2.77;;;19.50;36.00;;;;;;6281160;28;20235;-66
2023/04/12 08:57:43;;;;;;;3.13;2.17;;;20.80;35.80;;;;;;6274967;28;20229;-66
2023/04/12 09:00:46;;;;;;;6.13;2.60;;;23.30;31.70;;;;;;6274990;28;20223;-66
2023/04/12 09:03:50;;;;;;;3.23;1.80;;;25.30;29.10;;;;;;6274930;28;20238;-66
2023/04/12 09:06:53;;;;;;;4.83;2.40;;;26.60;27.40;;;;;;6275226;28;20283;-67
2023/04/12 09:09:58;;;;;;;3.60;2.20;;;26.80;26.60;;;;;;6275112;28;20242;-65
2023/04/12 09:13:02;;;;;;;4.67;2.13;;;26.10;26.90;;;;;;6274943;28;20223;-67
2023/04/12 09:16:06;;;;;;;3.33;3.03;;;25.40;26.90;;;;;;6280553;28;20643;-65
2023/04/12 09:19:09;;;;;;;2.10;1.90;;;24.20;28.20;;;;;;6284154;28;20219;-66
2023/04/12 09:22:12;;;;;;;3.00;2.00;;;22.70;29.80;;;;;;6283946;28;20215;-66
2023/04/12 09:25:17;;;;;;;4.20;1.83;;;21.50;30.90;;;;;;6279942;28;20235;-66
2023/04/12 09:28:25;;;;;;;6.40;1.73;;;20.70;31.50;;;;;;6265037;28;20231;-66
2023/04/12 09:31:28;;;;;;;2.63;1.87;;;19.70;31.90;;;;;;6249967;28;20252;-66
2023/04/12 09:34:33;;;;;;;4.60;2.17;;;19.30;32.40;;;;;;6249262;28;20239;-66
2023/04/12 09:37:37;;;;;;;3.13;2.13;;;19.10;33.20;;;;;;6249752;28;20236;-65
2023/04/12 09:40:42;;;;;;;3.20;1.80;;;18.90;33.60;;;;;;6249691;28;20242;-65
2023/04/12 09:43:45;;;;;;;6.03;2.73;;;18.60;34.40;;;;;;6249340;28;20577;-65
2023/04/12 09:46:51;;;;;;;6.00;2.37;;;18.60;35.00;;;;;;6266379;28;20528;-65
2023/04/12 09:49:55;;;;;;;2.63;1.97;;;18.70;35.00;;;;;;6272602;28;20568;-65
2023/04/12 09:52:59;;;;;;;1.60;1.33;;;18.80;34.50;;;;;;6272977;28;20223;-65
2023/04/12 09:56:04;;;;;;;4.40;2.03;;;19.20;34.40;;;;;;6273768;28;20671;-65
2023/04/12 09:59:08;;;;;;;2.30;1.60;;;19.80;34.00;;;;;;6273974;28;20298;-66
2023/04/12 10:02:15;;;;;;;2.17;1.97;;;19.70;33.20;;;;;;6274222;28;20207;-66
2023/04/12 10:05:21;;;;;;;8.23;1.77;;;19.90;33.40;;;;;;6274082;28;20235;-66
2023/04/12 10:08:26;;;;;;;3.43;1.70;;;20.30;32.80;;;;;;6274211;28;20231;-66
2023/04/12 10:11:32;;;;;;;2.80;2.60;;;20.50;32.70;;;;;;6275237;28;20238;-66
2023/04/12 10:14:36;;;;;;;2.13;1.77;;;20.50;33.10;;;;;;6274499;28;20297;-66
2023/04/12 10:17:43;;;;;;;2.10;1.90;;;20.40;31.40;;;;;;6277224;28;20240;-66
2023/04/12 10:20:47;;;;;;;1.63;1.47;;;20.40;32.20;;;;;;6274323;28;20227;-65
2023/04/12 10:23:50;;;;;;;3.00;1.80;;;21.00;31.20;;;;;;6273810;28;20691;-65
2023/04/12 10:26:59;;;;;;;4.30;1.90;;;20.70;30.90;;;;;;6273943;28;20227;-65
2023/04/12 10:30:21;;;;;;;3.33;2.20;;;20.00;31.80;;;;;;6273793;28;20254;-66
2023/04/12 10:33:26;;;;;;;2.20;1.87;;;19.50;32.50;;;;;;6273820;28;20678;-66
2023/04/12 10:36:51;;;;;;;2.90;1.60;;;20.30;32.30;;;;;;6274950;28;20246;-66
2023/04/12 10:39:55;;;;;;;2.83;1.83;;;20.90;31.00;;;;;;6280037;28;20566;-66
2023/04/12 10:43:27;;;;;;;4.00;2.33;;;21.10;30.50;;;;;;6277475;28;20239;-66
2023/04/12 10:46:52;;;;;;;4.27;1.80;;;20.80;30.60;;;;;;6273637;28;20246;-66
2023/04/12 10:50:20;;;;;;;3.77;1.70;;;20.80;31.20;;;;;;6276084;28;20239;-66
2023/04/12 10:53:27;;;;;;;2.70;1.97;;;21.00;31.20;;;;;;6275791;28;20223;-69
2023/04/12 10:56:38;;;;;;;2.80;1.70;;;21.00;30.70;;;;;;6280436;28;20231;-65
2023/04/12 10:59:58;;;;;;;2.50;1.90;;;20.10;31.60;;;;;;6279086;28;20670;-67
2023/04/12 11:03:10;;;;;;;3.07;1.97;;;19.70;32.10;;;;;;6277511;28;20703;-65
2023/04/12 11:06:15;;;;;;;2.43;2.23;;;19.70;32.50;;;;;;6277190;28;20552;-66
2023/04/12 11:09:37;;;;;;;2.60;1.70;;;19.50;32.50;;;;;;6277944;28;20289;-66
2023/04/12 11:12:41;;;;;;;2.20;1.90;;;19.10;33.30;;;;;;6277225;28;20659;-66
2023/04/12 11:15:46;;;;;;;2.60;1.67;;;19.20;33.80;;;;;;6277376;28;20245;-66
2023/04/12 11:18:49;;;;;;;3.03;2.13;;;19.20;33.60;;;;;;6277361;28;20232;-65
2023/04/12 11:21:53;;;;;;;2.97;2.30;;;18.70;34.10;;;;;;6278350;28;20238;-65
2023/04/12 11:24:58;;;;;;;3.10;2.13;;;18.40;34.50;;;;;;6279349;28;20735;-66
2023/04/12 11:28:01;;;;;;;4.80;2.20;;;18.20;35.30;;;;;;6277207;28;20563;-65
2023/04/12 11:31:07;;;;;;;3.07;2.20;;;18.30;35.10;;;;;;6289279;28;20227;-67
2023/04/12 11:34:10;;;;;;;2.90;2.27;;;18.50;35.50;;;;;;6302017;28;20245;-68
2023/04/12 11:37:20;;;;;;;6.13;2.90;;;18.20;35.40;;;;;;6293200;28;20706;-68
2023/04/12 11:40:23;;;;;;;2.50;2.03;;;18.30;36.10;;;;;;6301683;28;20695;-68
2023/04/12 11:43:26;;;;;;;7.40;6.80;;;18.60;35.80;;;;;;6301137;28;20229;-67
2023/04/12 11:46:35;;;;;;;3.40;3.10;;;18.60;35.70;;;;;;6290387;28;20246;-65
2023/04/12 11:49:44;;;;;;;4.83;4.43;;;18.00;36.50;;;;;;6301729;28;20613;-65
2023/04/12 11:52:47;;;;;;;4.40;2.60;;;18.50;36.10;;;;;;6299298;28;20234;-65
2023/04/12 11:55:50;;;;;;;4.80;2.90;;;18.90;35.40;;;;;;6267349;28;20243;-65
2023/04/12 11:58:53;;;;;;;4.23;2.23;;;18.90;35.30;;;;;;6277441;28;20603;-66
2023/04/12 12:01:59;;;;;;;3.17;2.33;;;19.30;35.30;;;;;;6286035;28;20227;-66
2023/04/12 12:05:03;;;;;;;2.83;2.50;;;19.70;35.30;;;;;;6275150;28;20573;-67
2023/04/12 12:08:08;;;;;;;4.90;2.37;;;19.50;34.50;;;;;;6276610;28;20211;-68
2023/04/12 12:11:12;;;;;;;6.80;2.93;;;19.00;35.00;;;;;;6276121;28;20208;-67
2023/04/12 12:14:19;;;;;;;4.30;2.40;;;18.80;35.50;;;;;;6276194;28;20227;-66
2023/04/12 12:17:23;;;;;;;3.10;2.50;;;18.90;35.60;;;;;;6276613;28;20629;-66
2023/04/12 12:20:26;;;;;;;3.00;2.67;;;19.10;35.50;;;;;;6276130;28;20293;-66
2023/04/12 12:23:30;;;;;;;4.93;2.97;;;19.40;35.80;;;;;;6272196;28;20234;-68
2023/04/12 12:26:35;;;;;;;4.13;2.07;;;19.50;34.30;;;;;;6275607;28;20239;-66
2023/04/12 12:29:39;;;;;;;4.20;2.50;;;19.40;34.80;;;;;;6275675;28;20261;-66
2023/04/12 12:32:44;;;;;;;2.60;2.37;;;20.00;34.40;;;;;;6275417;28;20235;-67
2023/04/12 12:35:47;;;;;;;2.90;2.70;;;20.40;33.80;;;;;;6275435;28;20243;-66
2023/04/12 12:38:53;;;;;;;3.20;2.33;;;20.60;33.90;;;;;;6275132;28;20534;-66
2023/04/12 12:41:56;;;;;;;3.90;2.50;;;20.70;33.50;;;;;;6280308;28;20226;-69
2023/04/12 12:45:00;;;;;;;5.90;2.90;;;20.00;33.70;;;;;;6279820;28;20243;-68
2023/04/12 12:48:04;;;;;;;3.33;2.80;;;19.90;34.50;;;;;;6285408;28;20235;-67
2023/04/12 12:51:08;;;;;;;5.80;2.97;;;19.90;33.90;;;;;;6299366;28;20222;-66
2023/04/12 12:54:12;;;;;;;3.20;2.57;;;19.90;33.40;;;;;;6286223;28;20702;-68
2023/04/12 12:57:15;;;;;;;3.53;2.30;;;20.20;33.40;;;;;;6282235;28;20592;-66
2023/04/12 13:00:20;;;;;;;4.23;2.37;;;20.60;33.60;;;;;;6286087;28;20570;-66
2023/04/12 13:03:24;;;;;;;3.57;2.50;;;20.60;33.10;;;;;;6280565;28;20227;-66
2023/04/12 13:06:28;;;;;;;3.70;3.40;;;20.60;33.40;;;;;;6279464;28;20718;-68
2023/04/12 13:09:32;;;;;;;5.10;3.07;;;20.80;33.00;;;;;;6274347;28;20331;-67
2023/04/12 13:12:35;;;;;;;3.27;2.97;;;21.00;32.90;;;;;;6274483;28;20231;-67
2023/04/12 13:15:38;;;;;;;2.93;2.70;;;21.30;33.10;;;;;;6284248;28;20232;-66
2023/04/12 13:18:43;;;;;;;2.53;2.33;;;21.20;32.20;;;;;;6284306;28;20221;-67
2023/04/12 13:21:46;;;;;;;3.30;2.73;;;20.90;32.50;;;;;;6279049;28;20242;-67
2023/04/12 13:24:49;;;;;;;2.83;2.47;;;20.60;32.90;;;;;;6273804;28;20558;-65
2023/04/12 13:27:53;;;;;;;2.50;2.17;;;20.70;33.30;;;;;;6274370;28;20234;-67
2023/04/12 13:30:56;;;;;;;3.60;2.50;;;21.00;33.10;;;;;;6273427;28;20250;-67
2023/04/12 13:34:00;;;;;;;2.93;2.63;;;21.10;32.80;;;;;;6274118;28;20246;-65
2023/04/12 13:37:04;;;;;;;3.83;2.90;;;20.90;32.80;;;;;;6282540;28;20228;-65
2023/04/12 13:40:08;;;;;;;3.70;2.87;;;20.90;33.40;;;;;;6311430;28;20230;-64
2023/04/12 13:43:11;;;;;;;5.30;4.80;;;20.60;33.10;;;;;;6299653;28;20215;-66
2023/04/12 13:46:14;;;;;;;6.70;5.30;;;20.60;33.60;;;;;;6282840;28;20239;-66
2023/04/12 13:49:18;;;;;;;3.00;2.80;;;20.50;34.10;;;;;;6290731;28;20220;-66
2023/04/12 13:52:22;;;;;;;3.23;2.50;;;20.30;34.00;;;;;;6287840;28;20231;-66
2023/04/12 13:55:25;;;;;;;7.27;2.70;;;20.40;34.10;;;;;;6290605;28;20582;-66
2023/04/12 13:58:28;;;;;;;2.53;2.20;;;20.60;34.00;;;;;;6299147;28;20235;-66
2023/04/12 14:01:31;;;;;;;3.73;2.90;;;20.80;33.70;;;;;;6289336;28;20227;-66
2023/04/12 14:04:36;;;;;;;5.47;2.60;;;20.60;33.90;;;;;;6275015;28;20235;-67
2023/04/12 14:07:39;;;;;;;3.27;2.40;;;20.20;34.20;;;;;;6277427;28;20229;-67
2023/04/12 14:10:43;;;;;;;4.23;2.87;;;20.20;33.70;;;;;;6285110;28;20219;-65
2023/04/12 14:13:46;;;;;;;3.53;3.10;;;20.10;34.40;;;;;;6277628;28;20540;-66
2023/04/12 14:16:50;;;;;;;2.50;2.30;;;19.70;34.60;;;;;;6284019;28;20235;-65
2023/04/12 14:19:55;;;;;;;3.87;2.70;;;19.80;34.90;;;;;;6292567;28;20241;-65
2023/04/12 14:22:58;;;;;;;4.77;2.73;;;19.70;35.00;;;;;;6279539;28;20250;-66
2023/04/12 14:26:01;;;;;;;2.97;2.30;;;19.80;35.10;;;;;;6253812;28;20657;-66
2023/04/12 14:29:04;;;;;;;6.23;2.50;;;19.80;35.60;;;;;;6230440;28;20252;-66
2023/04/12 14:32:08;;;;;;;4.00;3.03;;;19.50;36.10;;;;;;6255075;28;20235;-66
2023/04/12 14:35:12;;;;;;;3.67;2.40;;;19.40;36.60;;;;;;6229391;28;20644;-66
2023/04/12 14:38:15;;;;;;;3.17;2.40;;;19.60;36.30;;;;;;6230053;28;20216;-66
2023/04/12 14:41:18;;;;;;;3.87;2.80;;;19.70;35.60;;;;;;6229754;28;20208;-68
2023/04/12 14:44:22;;;;;;;3.40;3.10;;;19.60;35.50;;;;;;6229001;28;20236;-66
2023/04/12 14:47:28;;;;;;;2.87;2.60;;;19.30;36.10;;;;;;6229917;28;20344;-66
2023/04/12 14:50:32;;;;;;;2.80;2.60;;;19.20;36.40;;;;;;6229195;28;20967;-67
2023/04/12 14:53:36;;;;;;;5.93;2.87;;;19.00;36.80;;;;;;6237267;28;20239;-67
2023/04/12 14:56:39;;;;;;;4.60;3.00;;;18.80;37.00;;;;;;6253050;28;20310;-65
2023/04/12 14:59:51;;;;;;;3.27;2.97;;;18.50;36.90;;;;;;6253717;28;20228;-66
2023/04/12 15:02:54;;;;;;;3.40;2.40;;;18.50;37.10;;;;;;6253335;28;20607;-67
2023/04/12 15:05:59;;;;;;;2.63;2.43;;;18.50;37.10;;;;;;6244089;28;20236;-67
2023/04/12 15:09:03;;;;;;;3.77;3.37;;;18.40;38.00;;;;;;6263741;28;20227;-66
2023/04/12 15:12:08;;;;;;;2.53;2.33;;;18.20;37.80;;;;;;6266711;28;20223;-67
2023/04/12 15:15:12;;;;;;;2.90;2.70;;;18.30;38.20;;;;;;6263355;28;20227;-65
2023/04/12 15:18:15;;;;;;;4.33;3.00;;;18.40;38.30;;;;;;6264504;28;20228;-67
2023/04/12 15:21:20;;;;;;;2.90;2.70;;;18.50;37.90;;;;;;6258829;28;20216;-68
2023/04/12 15:24:23;;;;;;;4.20;3.33;;;18.60;37.70;;;;;;6261601;28;20236;-68
2023/04/12 15:27:27;;;;;;;4.27;2.63;;;18.60;37.80;;;;;;6245483;28;20224;-67
2023/04/12 15:30:30;;;;;;;4.13;2.53;;;18.40;37.80;;;;;;6228268;28;20320;-66
2023/04/12 15:33:34;;;;;;;2.80;2.60;;;18.40;38.20;;;;;;6228650;28;20232;-65
2023/04/12 15:36:41;;;;;;;4.60;3.27;;;18.30;38.00;;;;;;6237858;28;20231;-65
2023/04/12 15:39:45;;;;;;;4.13;2.93;;;18.30;38.30;;;;;;6256207;28;20235;-69
2023/04/12 15:42:48;;;;;;;3.30;2.70;;;18.30;38.50;;;;;;6252512;28;20232;-67
2023/04/12 15:45:53;;;;;;;2.27;2.07;;;18.30;38.50;;;;;;6252621;28;20228;-67
2023/04/12 15:48:57;;;;;;;4.00;2.50;;;18.30;38.20;;;;;;6252133;28;20236;-66
2023/04/12 15:52:03;;;;;;;2.83;2.50;;;18.30;38.30;;;;;;6254015;28;20236;-65
2023/04/12 15:55:10;;;;;;;3.47;3.17;;;18.30;38.50;;;;;;6258761;28;20521;-67
2023/04/12 15:58:13;;;;;;;3.70;3.00;;;18.10;38.90;;;;;;6262015;28;20338;-66
2023/04/12 16:01:17;;;;;;;3.13;2.90;;;18.00;39.00;;;;;;6249776;28;20475;-65
2023/04/12 16:04:20;;;;;;;5.07;2.60;;;18.00;39.20;;;;;;6255626;28;20983;-66